Time,TemperatureF,DewpointF,PressureIn,WindDirection,WindDirectionDegrees,WindSpeedMPH,WindSpeedGustMPH,Humidity,HourlyPrecipIn,Conditions,Clouds,dailyrainin,SoftwareType,DateUTC
2013-08-26 00:00:00,77.0,-99.9,-100.00,SSE,168,8.0,13.0,-999,-99.99,,,-99.99,,2013-08-26 04:00:00,
2013-08-26 00:05:00,81.0,-99.9,-100.00,South,178,12.0,17.0,-999,-99.99,,,-99.99,,2013-08-26 04:05:00,
2013-08-26 00:24:00,77.0,-99.9,-100.00,SSE,168,8.0,13.0,-999,-99.99,,,-99.99,,2013-08-26 04:24:00,
2013-08-26 00:34:00,77.0,-99.9,-100.00,SSE,168,8.0,13.0,-999,-99.99,,,-99.99,,2013-08-26 04:34:00,
2013-08-26 00:44:00,77.0,-99.9,-100.00,SSE,168,8.0,13.0,-999,-99.99,,,-99.99,,2013-08-26 04:44:00,
2013-08-26 00:53:00,77.0,-99.9,-100.00,SSE,168,8.0,13.0,-999,-99.99,,,-99.99,,2013-08-26 04:53:00,
2013-08-26 01:23:00,77.0,-99.9,-100.00,South,180,16.0,23.0,-999,-99.99,,,-99.99,,2013-08-26 05:23:00,
2013-08-26 01:34:00,77.0,-99.9,-100.00,South,180,16.0,23.0,-999,-99.99,,,-99.99,,2013-08-26 05:34:00,
2013-08-26 01:44:00,77.0,-99.9,-100.00,South,180,16.0,23.0,-999,-99.99,,,-99.99,,2013-08-26 05:44:00,
2013-08-26 01:53:00,77.0,-99.9,-100.00,South,182,17.0,23.0,-999,-99.99,,,-99.99,,2013-08-26 05:53:00,
2013-08-26 02:02:00,77.0,-99.9,-100.00,South,182,17.0,23.0,-999,-99.99,,,-99.99,,2013-08-26 06:02:00,
2013-08-26 02:12:00,77.0,-99.9,-100.00,South,182,17.0,23.0,-999,-99.99,,,-99.99,,2013-08-26 06:12:00,
2013-08-26 02:22:00,77.0,-99.9,-100.00,South,180,12.0,21.0,-999,-99.99,,,-99.99,,2013-08-26 06:22:00,
2013-08-26 02:32:00,77.0,-99.9,-100.00,South,180,12.0,21.0,-999,-99.99,,,-99.99,,2013-08-26 06:32:00,
2013-08-26 02:52:00,77.0,-99.9,-100.00,South,183,14.0,22.0,-999,-99.99,,,-99.99,,2013-08-26 06:52:00,
2013-08-26 03:02:00,77.0,-99.9,-100.00,South,183,14.0,22.0,-999,-99.99,,,-99.99,,2013-08-26 07:02:00,
2013-08-26 03:22:00,76.0,-99.9,-100.00,South,181,13.0,19.0,-999,-99.99,,,-99.99,,2013-08-26 07:22:00,
2013-08-26 03:32:00,76.0,-99.9,-100.00,South,181,13.0,19.0,-999,-99.99,,,-99.99,,2013-08-26 07:32:00,
2013-08-26 03:42:00,76.0,-99.9,-100.00,South,181,13.0,19.0,-999,-99.99,,,-99.99,,2013-08-26 07:42:00,
2013-08-26 03:53:00,76.0,-99.9,-100.00,South,180,14.0,21.0,-999,-99.99,,,-99.99,,2013-08-26 07:53:00,
2013-08-26 04:02:00,76.0,-99.9,-100.00,South,180,14.0,21.0,-999,-99.99,,,-99.99,,2013-08-26 08:02:00,
2013-08-26 04:22:00,73.0,-99.9,-100.00,South,185,12.0,17.0,-999,-99.99,,,-99.99,,2013-08-26 08:22:00,
2013-08-26 04:32:00,73.0,-99.9,-100.00,South,185,12.0,17.0,-999,-99.99,,,-99.99,,2013-08-26 08:32:00,
2013-08-26 04:42:00,73.0,-99.9,-100.00,South,185,12.0,17.0,-999,-99.99,,,-99.99,,2013-08-26 08:42:00,
2013-08-26 05:11:00,74.0,-99.9,-100.00,South,186,12.0,20.0,-999,-99.99,,,-99.99,,2013-08-26 09:11:00,
2013-08-26 05:22:00,73.0,-99.9,-100.00,South,182,13.0,19.0,-999,-99.99,,,-99.99,,2013-08-26 09:22:00,
2013-08-26 05:33:00,73.0,-99.9,-100.00,South,182,13.0,19.0,-999,-99.99,,,-99.99,,2013-08-26 09:33:00,
2013-08-26 05:54:00,73.0,-99.9,-100.00,South,180,13.0,19.0,-999,-99.99,,,-99.99,,2013-08-26 09:54:00,
2013-08-26 06:13:00,73.0,-99.9,-100.00,South,180,13.0,19.0,-999,-99.99,,,-99.99,,2013-08-26 10:13:00,
2013-08-26 06:23:00,73.0,-99.9,-100.00,South,185,13.0,16.0,-999,-99.99,,,-99.99,,2013-08-26 10:23:00,
2013-08-26 06:42:00,73.0,-99.9,-100.00,South,183,13.0,19.0,-999,-99.99,,,-99.99,,2013-08-26 10:42:00,
2013-08-26 07:12:00,73.0,-99.9,-100.00,South,183,13.0,19.0,-999,-99.99,,,-99.99,,2013-08-26 11:12:00,
2013-08-26 07:22:00,73.0,-99.9,-100.00,South,182,13.0,19.0,-999,-99.99,,,-99.99,,2013-08-26 11:22:00,
2013-08-26 07:42:00,73.0,-99.9,-100.00,South,182,13.0,19.0,-999,-99.99,,,-99.99,,2013-08-26 11:42:00,
2013-08-26 07:52:00,73.0,-99.9,-100.00,South,182,13.0,19.0,-999,-99.99,,,-99.99,,2013-08-26 11:52:00,
2013-08-26 08:01:00,73.0,-99.9,-100.00,South,182,13.0,19.0,-999,-99.99,,,-99.99,,2013-08-26 12:01:00,
2013-08-26 08:22:00,72.0,-99.9,-100.00,South,183,11.0,14.0,-999,-99.99,,,-99.99,,2013-08-26 12:22:00,
2013-08-26 08:42:00,73.0,-99.9,-100.00,South,182,11.0,17.0,-999,-99.99,,,-99.99,,2013-08-26 12:42:00,
2013-08-26 08:52:00,73.0,-99.9,-100.00,South,182,11.0,17.0,-999,-99.99,,,-99.99,,2013-08-26 12:52:00,
2013-08-26 09:22:00,73.0,-99.9,-100.00,South,179,14.0,16.0,-999,-99.99,,,-99.99,,2013-08-26 13:22:00,
2013-08-26 09:32:00,73.0,-99.9,-100.00,South,179,14.0,16.0,-999,-99.99,,,-99.99,,2013-08-26 13:32:00,
2013-08-26 09:42:00,73.0,-99.9,-100.00,South,179,14.0,16.0,-999,-99.99,,,-99.99,,2013-08-26 13:42:00,
2013-08-26 09:52:00,73.0,-99.9,-100.00,South,181,13.0,16.0,-999,-99.99,,,-99.99,,2013-08-26 13:52:00,
2013-08-26 10:02:00,73.0,-99.9,-100.00,South,181,13.0,16.0,-999,-99.99,,,-99.99,,2013-08-26 14:02:00,
2013-08-26 10:22:00,73.0,-99.9,-100.00,South,182,12.0,16.0,-999,-99.99,,,-99.99,,2013-08-26 14:22:00,
2013-08-26 10:32:00,73.0,-99.9,-100.00,South,182,12.0,16.0,-999,-99.99,,,-99.99,,2013-08-26 14:32:00,
2013-08-26 10:42:00,73.0,-99.9,-100.00,South,182,12.0,16.0,-999,-99.99,,,-99.99,,2013-08-26 14:42:00,
2013-08-26 10:52:00,73.0,-99.9,-100.00,South,185,13.0,19.0,-999,-99.99,,,-99.99,,2013-08-26 14:52:00,
2013-08-26 11:02:00,73.0,-99.9,-100.00,South,185,13.0,19.0,-999,-99.99,,,-99.99,,2013-08-26 15:02:00,
2013-08-26 11:12:00,73.0,-99.9,-100.00,South,185,13.0,19.0,-999,-99.99,,,-99.99,,2013-08-26 15:12:00,
2013-08-26 11:22:00,73.0,-99.9,-100.00,South,188,14.0,17.0,-999,-99.99,,,-99.99,,2013-08-26 15:22:00,
2013-08-26 11:35:00,73.0,-99.9,-100.00,South,188,14.0,17.0,-999,-99.99,,,-99.99,,2013-08-26 15:35:00,
2013-08-26 12:17:00,73.0,-99.9,-100.00,South,187,14.0,19.0,-999,-99.99,,,-99.99,,2013-08-26 16:17:00,
2013-08-26 12:29:00,73.0,-99.9,-100.00,South,187,14.0,19.0,-999,-99.99,,,-99.99,,2013-08-26 16:29:00,
2013-08-26 12:37:00,73.0,-99.9,-100.00,South,187,14.0,19.0,-999,-99.99,,,-99.99,,2013-08-26 16:37:00,
2013-08-26 12:48:00,73.0,-99.9,-100.00,South,187,14.0,19.0,-999,-99.99,,,-99.99,,2013-08-26 16:48:00,
2013-08-26 12:59:00,74.0,-99.9,-100.00,South,188,13.0,16.0,-999,-99.99,,,-99.99,,2013-08-26 16:59:00,
2013-08-26 13:06:00,74.0,-99.9,-100.00,South,188,13.0,16.0,-999,-99.99,,,-99.99,,2013-08-26 17:06:00,
2013-08-26 13:12:00,74.0,-99.9,-100.00,South,188,13.0,16.0,-999,-99.99,,,-99.99,,2013-08-26 17:12:00,
2013-08-26 13:53:00,75.0,-99.9,-100.00,South,187,12.0,21.0,-999,-99.99,,,-99.99,,2013-08-26 17:53:00,
2013-08-26 14:02:00,75.0,-99.9,-100.00,South,187,12.0,21.0,-999,-99.99,,,-99.99,,2013-08-26 18:02:00,
2013-08-26 14:22:00,75.0,-99.9,-100.00,South,187,12.0,21.0,-999,-99.99,,,-99.99,,2013-08-26 18:22:00,
2013-08-26 14:32:00,75.0,-99.9,-100.00,South,187,12.0,21.0,-999,-99.99,,,-99.99,,2013-08-26 18:32:00,
2013-08-26 14:50:00,76.0,-99.9,-100.00,South,182,11.0,17.0,-999,-99.99,,,-99.99,,2013-08-26 18:50:00,
2013-08-26 14:52:00,76.0,-99.9,-100.00,South,182,11.0,17.0,-999,-99.99,,,-99.99,,2013-08-26 18:52:00,
2013-08-26 15:11:00,76.0,-99.9,-100.00,South,182,11.0,17.0,-999,-99.99,,,-99.99,,2013-08-26 19:11:00,
2013-08-26 15:22:00,76.0,-99.9,-100.00,South,182,11.0,17.0,-999,-99.99,,,-99.99,,2013-08-26 19:22:00,
2013-08-26 15:32:00,76.0,-99.9,-100.00,South,182,11.0,17.0,-999,-99.99,,,-99.99,,2013-08-26 19:32:00,
2013-08-26 15:42:00,76.0,-99.9,-100.00,South,182,11.0,17.0,-999,-99.99,,,-99.99,,2013-08-26 19:42:00,
2013-08-26 16:12:00,77.0,-99.9,-100.00,South,180,15.0,20.0,-999,-99.99,,,-99.99,,2013-08-26 20:12:00,
2013-08-26 16:22:00,78.0,-99.9,-100.00,South,183,14.0,20.0,-999,-99.99,,,-99.99,,2013-08-26 20:22:00,
2013-08-26 16:32:00,78.0,-99.9,-100.00,South,183,14.0,20.0,-999,-99.99,,,-99.99,,2013-08-26 20:32:00,
2013-08-26 16:52:00,78.0,-99.9,-100.00,South,183,14.0,21.0,-999,-99.99,,,-99.99,,2013-08-26 20:52:00,
2013-08-26 17:02:00,78.0,-99.9,-100.00,South,183,14.0,21.0,-999,-99.99,,,-99.99,,2013-08-26 21:02:00,
2013-08-26 17:22:00,81.0,-99.9,-100.00,South,188,9.0,14.0,-999,-99.99,,,-99.99,,2013-08-26 21:22:00,
2013-08-26 17:45:00,81.0,-99.9,-100.00,South,182,11.0,19.0,-999,-99.99,,,-99.99,,2013-08-26 21:45:00,
2013-08-26 17:55:00,81.0,-99.9,-100.00,South,182,11.0,19.0,-999,-99.99,,,-99.99,,2013-08-26 21:55:00,
2013-08-26 18:16:00,81.0,-99.9,-100.00,South,182,11.0,19.0,-999,-99.99,,,-99.99,,2013-08-26 22:16:00,
2013-08-26 18:43:00,82.0,-99.9,-100.00,South,183,11.0,15.0,-999,-99.99,,,-99.99,,2013-08-26 22:43:00,
2013-08-26 19:22:00,81.0,-99.9,-100.00,South,182,10.0,15.0,-999,-99.99,,,-99.99,,2013-08-26 23:22:00,
2013-08-26 19:42:00,81.0,-99.9,-100.00,South,180,10.0,18.0,-999,-99.99,,,-99.99,,2013-08-26 23:42:00,
2013-08-26 19:52:00,81.0,-99.9,-100.00,South,180,10.0,18.0,-999,-99.99,,,-99.99,,2013-08-26 23:52:00,
2013-08-26 20:22:00,80.0,-99.9,-100.00,South,182,9.0,13.0,-999,-99.99,,,-99.99,,2013-08-27 00:22:00,
2013-08-26 20:32:00,80.0,-99.9,-100.00,South,182,9.0,13.0,-999,-99.99,,,-99.99,,2013-08-27 00:32:00,
2013-08-26 20:52:00,80.0,-99.9,-100.00,South,189,11.0,15.0,-999,-99.99,,,-99.99,,2013-08-27 00:52:00,
2013-08-26 21:12:00,80.0,-99.9,-100.00,South,189,11.0,15.0,-999,-99.99,,,-99.99,,2013-08-27 01:12:00,
2013-08-26 21:22:00,80.0,-99.9,-100.00,South,189,11.0,15.0,-999,-99.99,,,-99.99,,2013-08-27 01:22:00,
2013-08-26 21:32:00,80.0,-99.9,-100.00,South,189,11.0,15.0,-999,-99.99,,,-99.99,,2013-08-27 01:32:00,
2013-08-26 22:22:00,78.0,-99.9,-100.00,SSW,213,14.0,14.0,-999,-99.99,,,-99.99,,2013-08-27 02:22:00,
2013-08-26 22:43:00,77.0,-99.9,-100.00,South,186,10.0,19.0,-999,-99.99,,,-99.99,,2013-08-27 02:43:00,
2013-08-26 22:52:00,77.0,-99.9,-100.00,South,186,10.0,19.0,-999,-99.99,,,-99.99,,2013-08-27 02:52:00,
2013-08-26 23:12:00,77.0,-99.9,-100.00,South,186,10.0,19.0,-999,-99.99,,,-99.99,,2013-08-27 03:12:00,
2013-08-26 23:23:00,77.0,-99.9,-100.00,South,186,10.0,19.0,-999,-99.99,,,-99.99,,2013-08-27 03:23:00,
2013-08-26 23:45:00,79.0,-99.9,-100.00,South,181,14.0,19.0,-999,-99.99,,,-99.99,,2013-08-27 03:45:00,
2013-08-26 23:58:00,79.0,-99.9,-100.00,South,181,14.0,19.0,-999,-99.99,,,-99.99,,2013-08-27 03:58:00,